sensor_id;sensor_type;location;lat;lon;timestamp;temperature;humidity
21353;DHT22;10834;52.268;6.770;2024-03-08T00:01:23;2.60;99.90
21353;DHT22;10834;52.268;6.770;2024-03-08T00:04:08;2.60;99.90
21353;DHT22;10834;52.268;6.770;2024-03-08T00:06:52;2.50;99.90
21353;DHT22;10834;52.268;6.770;2024-03-08T00:09:36;2.50;99.90
21353;DHT22;10834;52.268;6.770;2024-03-08T00:12:20;2.50;99.90
21353;DHT22;10834;52.268;6.770;2024-03-08T00:15:05;2.50;99.90
21353;DHT22;10834;52.268;6.770;2024-03-08T00:17:50;2.50;99.90
21353;DHT22;10834;52.268;6.770;2024-03-08T00:20:34;2.40;99.90
21353;DHT22;10834;52.268;6.770;2024-03-08T00:23:19;2.40;99.90
21353;DHT22;10834;52.268;6.770;2024-03-08T00:26:03;2.40;99.90
21353;DHT22;10834;52.268;6.770;2024-03-08T00:28:50;2.40;99.90
21353;DHT22;10834;52.268;6.770;2024-03-08T00:31:34;2.40;99.90
21353;DHT22;10834;52.268;6.770;2024-03-08T00:34:19;2.40;99.90
21353;DHT22;10834;52.268;6.770;2024-03-08T00:37:04;2.30;99.90
21353;DHT22;10834;52.268;6.770;2024-03-08T00:39:49;2.30;99.90
21353;DHT22;10834;52.268;6.770;2024-03-08T00:42:36;2.30;99.90
21353;DHT22;10834;52.268;6.770;2024-03-08T00:45:22;2.30;99.90
21353;DHT22;10834;52.268;6.770;2024-03-08T00:48:08;2.30;99.90
21353;DHT22;10834;52.268;6.770;2024-03-08T00:50:52;2.30;99.90
21353;DHT22;10834;52.268;6.770;2024-03-08T00:53:36;2.20;99.90
21353;DHT22;10834;52.268;6.770;2024-03-08T00:56:20;2.20;99.90
21353;DHT22;10834;52.268;6.770;2024-03-08T00:59:06;2.20;99.90
21353;DHT22;10834;52.268;6.770;2024-03-08T01:01:51;2.20;99.90
21353;DHT22;10834;52.268;6.770;2024-03-08T01:04:35;2.20;99.90
21353;DHT22;10834;52.268;6.770;2024-03-08T01:07:19;2.20;99.90
21353;DHT22;10834;52.268;6.770;2024-03-08T01:10:04;2.20;99.90
21353;DHT22;10834;52.268;6.770;2024-03-08T01:12:48;2.10;99.90
21353;DHT22;10834;52.268;6.770;2024-03-08T01:15:33;2.10;99.90
21353;DHT22;10834;52.268;6.770;2024-03-08T01:18:18;2.10;99.90
21353;DHT22;10834;52.268;6.770;2024-03-08T01:21:04;2.10;99.90
21353;DHT22;10834;52.268;6.770;2024-03-08T01:23:48;2.10;99.90
21353;DHT22;10834;52.268;6.770;2024-03-08T01:26:32;2.00;99.90
21353;DHT22;10834;52.268;6.770;2024-03-08T01:29:18;2.00;99.90
21353;DHT22;10834;52.268;6.770;2024-03-08T01:32:02;2.00;99.90
21353;DHT22;10834;52.268;6.770;2024-03-08T01:34:46;2.00;99.90
21353;DHT22;10834;52.268;6.770;2024-03-08T01:37:30;2.00;99.90
21353;DHT22;10834;52.268;6.770;2024-03-08T01:40:14;2.00;99.90
21353;DHT22;10834;52.268;6.770;2024-03-08T01:46:00;1.90;99.90
21353;DHT22;10834;52.268;6.770;2024-03-08T01:48:45;1.90;99.90
21353;DHT22;10834;52.268;6.770;2024-03-08T01:51:30;1.90;99.90
21353;DHT22;10834;52.268;6.770;2024-03-08T01:54:17;1.90;99.90
21353;DHT22;10834;52.268;6.770;2024-03-08T01:57:02;1.90;99.90
21353;DHT22;10834;52.268;6.770;2024-03-08T01:59:47;1.90;99.90
21353;DHT22;10834;52.268;6.770;2024-03-08T02:02:32;1.90;99.90
21353;DHT22;10834;52.268;6.770;2024-03-08T02:05:18;1.80;99.90
21353;DHT22;10834;52.268;6.770;2024-03-08T02:08:03;1.90;99.90
21353;DHT22;10834;52.268;6.770;2024-03-08T02:10:47;1.80;99.90
21353;DHT22;10834;52.268;6.770;2024-03-08T02:13:33;1.80;99.90
21353;DHT22;10834;52.268;6.770;2024-03-08T02:16:22;1.80;99.90
21353;DHT22;10834;52.268;6.770;2024-03-08T02:19:06;1.80;99.90
21353;DHT22;10834;52.268;6.770;2024-03-08T02:21:53;1.80;99.90
21353;DHT22;10834;52.268;6.770;2024-03-08T02:24:38;1.80;99.90
21353;DHT22;10834;52.268;6.770;2024-03-08T02:27:25;1.80;99.90
21353;DHT22;10834;52.268;6.770;2024-03-08T02:30:10;1.80;99.90
21353;DHT22;10834;52.268;6.770;2024-03-08T02:32:56;1.70;99.90
21353;DHT22;10834;52.268;6.770;2024-03-08T02:35:42;1.70;99.90
21353;DHT22;10834;52.268;6.770;2024-03-08T02:38:26;1.70;99.90
21353;DHT22;10834;52.268;6.770;2024-03-08T02:41:11;1.70;99.90
21353;DHT22;10834;52.268;6.770;2024-03-08T02:43:56;1.70;99.90
21353;DHT22;10834;52.268;6.770;2024-03-08T02:46:40;1.70;99.90
21353;DHT22;10834;52.268;6.770;2024-03-08T02:49:25;1.70;99.90
21353;DHT22;10834;52.268;6.770;2024-03-08T02:52:10;1.70;99.90
21353;DHT22;10834;52.268;6.770;2024-03-08T02:54:54;1.60;99.90
21353;DHT22;10834;52.268;6.770;2024-03-08T02:57:39;1.60;99.90
21353;DHT22;10834;52.268;6.770;2024-03-08T03:00:23;1.60;99.90
21353;DHT22;10834;52.268;6.770;2024-03-08T03:03:08;1.60;99.90
21353;DHT22;10834;52.268;6.770;2024-03-08T03:05:53;1.60;99.90
21353;DHT22;10834;52.268;6.770;2024-03-08T03:08:39;1.50;99.90
21353;DHT22;10834;52.268;6.770;2024-03-08T03:11:27;1.50;99.90
21353;DHT22;10834;52.268;6.770;2024-03-08T03:14:11;1.50;99.90
21353;DHT22;10834;52.268;6.770;2024-03-08T03:16:55;1.50;99.90
21353;DHT22;10834;52.268;6.770;2024-03-08T03:19:42;1.50;99.90
21353;DHT22;10834;52.268;6.770;2024-03-08T03:22:26;1.50;99.90
21353;DHT22;10834;52.268;6.770;2024-03-08T03:25:11;1.50;99.90
21353;DHT22;10834;52.268;6.770;2024-03-08T03:27:56;1.50;99.90
21353;DHT22;10834;52.268;6.770;2024-03-08T03:30:41;1.50;99.90
21353;DHT22;10834;52.268;6.770;2024-03-08T03:33:25;1.50;99.90
21353;DHT22;10834;52.268;6.770;2024-03-08T03:36:10;1.40;99.90
21353;DHT22;10834;52.268;6.770;2024-03-08T03:38:54;1.40;99.90
21353;DHT22;10834;52.268;6.770;2024-03-08T03:41:55;1.40;99.90
21353;DHT22;10834;52.268;6.770;2024-03-08T03:44:39;1.40;99.90
21353;DHT22;10834;52.268;6.770;2024-03-08T03:47:23;1.40;99.90
21353;DHT22;10834;52.268;6.770;2024-03-08T03:50:07;1.40;99.90
21353;DHT22;10834;52.268;6.770;2024-03-08T03:52:54;1.40;99.90
21353;DHT22;10834;52.268;6.770;2024-03-08T03:55:38;1.40;99.90
21353;DHT22;10834;52.268;6.770;2024-03-08T03:58:23;1.50;99.90
21353;DHT22;10834;52.268;6.770;2024-03-08T04:01:07;1.50;99.90
21353;DHT22;10834;52.268;6.770;2024-03-08T04:03:51;1.50;99.90
21353;DHT22;10834;52.268;6.770;2024-03-08T04:06:35;1.50;99.90
21353;DHT22;10834;52.268;6.770;2024-03-08T04:09:19;1.50;99.90
21353;DHT22;10834;52.268;6.770;2024-03-08T04:12:06;1.40;99.90
21353;DHT22;10834;52.268;6.770;2024-03-08T04:14:50;1.40;99.90
21353;DHT22;10834;52.268;6.770;2024-03-08T04:17:34;1.40;99.90
21353;DHT22;10834;52.268;6.770;2024-03-08T04:20:22;1.40;99.90
21353;DHT22;10834;52.268;6.770;2024-03-08T04:23:06;1.40;99.90
21353;DHT22;10834;52.268;6.770;2024-03-08T04:25:50;1.30;99.90
21353;DHT22;10834;52.268;6.770;2024-03-08T04:28:34;1.30;99.90
21353;DHT22;10834;52.268;6.770;2024-03-08T04:31:19;1.30;99.90
21353;DHT22;10834;52.268;6.770;2024-03-08T04:34:03;1.30;99.90
21353;DHT22;10834;52.268;6.770;2024-03-08T04:36:49;1.20;99.90
21353;DHT22;10834;52.268;6.770;2024-03-08T04:39:33;1.20;99.90
21353;DHT22;10834;52.268;6.770;2024-03-08T04:42:17;1.20;99.90
21353;DHT22;10834;52.268;6.770;2024-03-08T04:45:02;1.20;99.90
21353;DHT22;10834;52.268;6.770;2024-03-08T04:47:48;1.10;99.90
21353;DHT22;10834;52.268;6.770;2024-03-08T04:50:32;1.10;99.90
21353;DHT22;10834;52.268;6.770;2024-03-08T04:53:16;1.10;99.90
21353;DHT22;10834;52.268;6.770;2024-03-08T04:56:01;1.10;99.90
21353;DHT22;10834;52.268;6.770;2024-03-08T04:58:50;1.10;99.90
21353;DHT22;10834;52.268;6.770;2024-03-08T05:01:34;1.10;99.90
21353;DHT22;10834;52.268;6.770;2024-03-08T05:04:22;1.10;99.90
21353;DHT22;10834;52.268;6.770;2024-03-08T05:07:06;1.10;99.90
21353;DHT22;10834;52.268;6.770;2024-03-08T05:09:50;1.00;99.90
21353;DHT22;10834;52.268;6.770;2024-03-08T05:12:35;1.00;99.90
21353;DHT22;10834;52.268;6.770;2024-03-08T05:15:20;1.00;99.90
21353;DHT22;10834;52.268;6.770;2024-03-08T05:18:04;1.00;99.90
21353;DHT22;10834;52.268;6.770;2024-03-08T05:20:48;1.00;99.90
21353;DHT22;10834;52.268;6.770;2024-03-08T05:23:33;1.00;99.90
21353;DHT22;10834;52.268;6.770;2024-03-08T05:26:18;1.00;99.90
21353;DHT22;10834;52.268;6.770;2024-03-08T05:29:02;1.00;99.90
21353;DHT22;10834;52.268;6.770;2024-03-08T05:31:48;1.00;99.90
21353;DHT22;10834;52.268;6.770;2024-03-08T05:34:33;1.00;99.90
21353;DHT22;10834;52.268;6.770;2024-03-08T05:37:18;1.00;99.90
21353;DHT22;10834;52.268;6.770;2024-03-08T05:40:05;1.00;99.90
21353;DHT22;10834;52.268;6.770;2024-03-08T05:42:53;0.90;99.90
21353;DHT22;10834;52.268;6.770;2024-03-08T05:45:38;1.00;99.90
21353;DHT22;10834;52.268;6.770;2024-03-08T05:48:22;1.00;99.90
21353;DHT22;10834;52.268;6.770;2024-03-08T05:51:06;1.00;99.90
21353;DHT22;10834;52.268;6.770;2024-03-08T05:53:50;0.90;99.90
21353;DHT22;10834;52.268;6.770;2024-03-08T05:56:38;0.90;99.90
21353;DHT22;10834;52.268;6.770;2024-03-08T05:59:22;0.90;99.90
21353;DHT22;10834;52.268;6.770;2024-03-08T06:02:07;0.90;99.90
21353;DHT22;10834;52.268;6.770;2024-03-08T06:04:51;0.90;99.90
21353;DHT22;10834;52.268;6.770;2024-03-08T06:07:35;0.90;99.90
21353;DHT22;10834;52.268;6.770;2024-03-08T06:10:20;0.90;99.90
21353;DHT22;10834;52.268;6.770;2024-03-08T06:13:04;0.90;99.90
21353;DHT22;10834;52.268;6.770;2024-03-08T06:15:49;1.00;99.90
21353;DHT22;10834;52.268;6.770;2024-03-08T06:18:37;1.00;99.90
21353;DHT22;10834;52.268;6.770;2024-03-08T06:21:22;1.00;99.90
21353;DHT22;10834;52.268;6.770;2024-03-08T06:24:07;1.10;99.90
21353;DHT22;10834;52.268;6.770;2024-03-08T06:26:51;1.10;99.90
21353;DHT22;10834;52.268;6.770;2024-03-08T06:29:36;1.20;99.90
21353;DHT22;10834;52.268;6.770;2024-03-08T06:32:20;1.20;99.90
21353;DHT22;10834;52.268;6.770;2024-03-08T06:35:05;1.30;99.90
21353;DHT22;10834;52.268;6.770;2024-03-08T06:37:54;1.30;99.90
21353;DHT22;10834;52.268;6.770;2024-03-08T06:40:38;1.40;99.90
21353;DHT22;10834;52.268;6.770;2024-03-08T06:43:22;1.40;99.90
21353;DHT22;10834;52.268;6.770;2024-03-08T06:46:09;1.50;99.90
21353;DHT22;10834;52.268;6.770;2024-03-08T06:48:53;1.60;99.90
21353;DHT22;10834;52.268;6.770;2024-03-08T06:51:38;1.70;99.90
21353;DHT22;10834;52.268;6.770;2024-03-08T06:54:22;1.80;99.90
21353;DHT22;10834;52.268;6.770;2024-03-08T06:57:06;1.90;99.90
21353;DHT22;10834;52.268;6.770;2024-03-08T06:59:50;1.90;99.90
21353;DHT22;10834;52.268;6.770;2024-03-08T07:02:36;2.00;99.90
21353;DHT22;10834;52.268;6.770;2024-03-08T07:05:20;2.10;99.90
21353;DHT22;10834;52.268;6.770;2024-03-08T07:08:04;2.20;99.90
21353;DHT22;10834;52.268;6.770;2024-03-08T07:10:50;2.30;99.90
21353;DHT22;10834;52.268;6.770;2024-03-08T07:13:34;2.40;99.90
21353;DHT22;10834;52.268;6.770;2024-03-08T07:16:18;2.40;99.90
21353;DHT22;10834;52.268;6.770;2024-03-08T07:19:02;2.50;99.90
21353;DHT22;10834;52.268;6.770;2024-03-08T07:21:47;2.50;99.90
21353;DHT22;10834;52.268;6.770;2024-03-08T07:24:32;2.70;99.90
21353;DHT22;10834;52.268;6.770;2024-03-08T07:27:31;2.70;99.90
21353;DHT22;10834;52.268;6.770;2024-03-08T07:30:16;2.80;99.90
21353;DHT22;10834;52.268;6.770;2024-03-08T07:33:19;3.00;99.90
21353;DHT22;10834;52.268;6.770;2024-03-08T07:36:03;3.00;99.90
21353;DHT22;10834;52.268;6.770;2024-03-08T07:38:48;3.10;99.90
21353;DHT22;10834;52.268;6.770;2024-03-08T07:41:32;3.20;99.90
21353;DHT22;10834;52.268;6.770;2024-03-08T07:44:20;3.40;99.90
21353;DHT22;10834;52.268;6.770;2024-03-08T07:47:04;3.50;99.90
21353;DHT22;10834;52.268;6.770;2024-03-08T07:49:49;3.50;99.90
21353;DHT22;10834;52.268;6.770;2024-03-08T07:52:33;3.60;99.90
21353;DHT22;10834;52.268;6.770;2024-03-08T07:55:18;3.70;99.90
21353;DHT22;10834;52.268;6.770;2024-03-08T07:58:03;3.90;99.90
21353;DHT22;10834;52.268;6.770;2024-03-08T08:00:47;3.90;99.90
21353;DHT22;10834;52.268;6.770;2024-03-08T08:03:33;4.00;99.90
21353;DHT22;10834;52.268;6.770;2024-03-08T08:06:17;4.10;99.90
21353;DHT22;10834;52.268;6.770;2024-03-08T08:09:01;4.30;99.90
21353;DHT22;10834;52.268;6.770;2024-03-08T08:11:45;5.80;99.90
21353;DHT22;10834;52.268;6.770;2024-03-08T08:14:30;8.60;99.90
21353;DHT22;10834;52.268;6.770;2024-03-08T08:17:15;10.90;89.90
21353;DHT22;10834;52.268;6.770;2024-03-08T08:19:59;12.60;69.10
21353;DHT22;10834;52.268;6.770;2024-03-08T08:22:44;13.70;59.30
21353;DHT22;10834;52.268;6.770;2024-03-08T08:25:28;14.60;57.50
21353;DHT22;10834;52.268;6.770;2024-03-08T08:28:13;15.80;54.80
21353;DHT22;10834;52.268;6.770;2024-03-08T08:30:58;17.10;50.80
21353;DHT22;10834;52.268;6.770;2024-03-08T08:33:43;17.70;48.50
21353;DHT22;10834;52.268;6.770;2024-03-08T08:36:28;17.90;45.40
21353;DHT22;10834;52.268;6.770;2024-03-08T08:39:13;18.40;46.10
21353;DHT22;10834;52.268;6.770;2024-03-08T08:41:58;20.00;43.70
21353;DHT22;10834;52.268;6.770;2024-03-08T08:44:42;21.20;41.60
21353;DHT22;10834;52.268;6.770;2024-03-08T08:47:26;22.20;39.80
21353;DHT22;10834;52.268;6.770;2024-03-08T08:50:10;23.10;37.70
21353;DHT22;10834;52.268;6.770;2024-03-08T08:52:56;23.50;35.50
21353;DHT22;10834;52.268;6.770;2024-03-08T08:55:41;23.20;35.00
21353;DHT22;10834;52.268;6.770;2024-03-08T08:58:25;23.50;34.20
21353;DHT22;10834;52.268;6.770;2024-03-08T09:01:09;23.10;34.70
21353;DHT22;10834;52.268;6.770;2024-03-08T09:03:56;23.40;34.20
21353;DHT22;10834;52.268;6.770;2024-03-08T09:06:41;23.60;34.40
21353;DHT22;10834;52.268;6.770;2024-03-08T09:09:25;23.90;33.30
21353;DHT22;10834;52.268;6.770;2024-03-08T09:12:09;24.00;33.40
21353;DHT22;10834;52.268;6.770;2024-03-08T09:14:57;23.70;33.60
21353;DHT22;10834;52.268;6.770;2024-03-08T09:17:41;23.70;32.80
21353;DHT22;10834;52.268;6.770;2024-03-08T09:20:25;23.90;32.70
21353;DHT22;10834;52.268;6.770;2024-03-08T09:23:09;23.50;33.10
21353;DHT22;10834;52.268;6.770;2024-03-08T09:25:54;23.50;32.70
21353;DHT22;10834;52.268;6.770;2024-03-08T09:28:38;23.30;33.70
21353;DHT22;10834;52.268;6.770;2024-03-08T09:31:23;23.90;33.40
21353;DHT22;10834;52.268;6.770;2024-03-08T09:34:07;24.00;33.20
21353;DHT22;10834;52.268;6.770;2024-03-08T09:36:52;24.00;32.40
21353;DHT22;10834;52.268;6.770;2024-03-08T09:39:36;23.70;32.20
21353;DHT22;10834;52.268;6.770;2024-03-08T09:42:20;23.70;33.60
21353;DHT22;10834;52.268;6.770;2024-03-08T09:45:10;23.80;33.10
21353;DHT22;10834;52.268;6.770;2024-03-08T09:48:00;23.70;33.80
21353;DHT22;10834;52.268;6.770;2024-03-08T09:50:46;22.70;34.50
21353;DHT22;10834;52.268;6.770;2024-03-08T09:53:30;21.10;35.60
21353;DHT22;10834;52.268;6.770;2024-03-08T09:56:15;20.30;36.70
21353;DHT22;10834;52.268;6.770;2024-03-08T09:58:59;20.80;37.80
21353;DHT22;10834;52.268;6.770;2024-03-08T10:01:50;20.80;37.10
21353;DHT22;10834;52.268;6.770;2024-03-08T10:04:36;19.50;37.60
21353;DHT22;10834;52.268;6.770;2024-03-08T10:07:20;18.60;39.20
21353;DHT22;10834;52.268;6.770;2024-03-08T10:10:04;18.00;40.80
21353;DHT22;10834;52.268;6.770;2024-03-08T10:12:49;18.60;41.20
21353;DHT22;10834;52.268;6.770;2024-03-08T10:15:33;18.70;40.60
21353;DHT22;10834;52.268;6.770;2024-03-08T10:18:18;18.30;41.20
21353;DHT22;10834;52.268;6.770;2024-03-08T10:21:07;17.70;41.60
21353;DHT22;10834;52.268;6.770;2024-03-08T10:23:53;17.20;43.10
21353;DHT22;10834;52.268;6.770;2024-03-08T10:26:38;16.70;42.40
21353;DHT22;10834;52.268;6.770;2024-03-08T10:29:22;15.80;43.20
21353;DHT22;10834;52.268;6.770;2024-03-08T10:32:07;14.60;44.60
21353;DHT22;10834;52.268;6.770;2024-03-08T10:34:51;13.80;47.00
21353;DHT22;10834;52.268;6.770;2024-03-08T10:37:46;13.40;48.60
21353;DHT22;10834;52.268;6.770;2024-03-08T10:40:31;13.10;50.00
21353;DHT22;10834;52.268;6.770;2024-03-08T10:43:22;12.80;49.90
21353;DHT22;10834;52.268;6.770;2024-03-08T10:46:27;12.60;50.70
21353;DHT22;10834;52.268;6.770;2024-03-08T10:49:17;12.20;50.90
21353;DHT22;10834;52.268;6.770;2024-03-08T10:52:03;11.90;51.90
21353;DHT22;10834;52.268;6.770;2024-03-08T10:54:48;11.80;52.30
21353;DHT22;10834;52.268;6.770;2024-03-08T10:57:35;12.00;52.80
21353;DHT22;10834;52.268;6.770;2024-03-08T11:00:22;12.20;53.60
21353;DHT22;10834;52.268;6.770;2024-03-08T11:09:40;12.50;52.00
21353;DHT22;10834;52.268;6.770;2024-03-08T11:12:26;12.50;52.50
21353;DHT22;10834;52.268;6.770;2024-03-08T11:15:14;12.70;53.00
21353;DHT22;10834;52.268;6.770;2024-03-08T11:17:58;12.90;52.60
21353;DHT22;10834;52.268;6.770;2024-03-08T11:20:43;13.00;52.70
21353;DHT22;10834;52.268;6.770;2024-03-08T11:23:30;13.10;51.30
21353;DHT22;10834;52.268;6.770;2024-03-08T11:26:19;13.00;51.50
21353;DHT22;10834;52.268;6.770;2024-03-08T11:32:19;12.80;52.70
21353;DHT22;10834;52.268;6.770;2024-03-08T11:35:07;12.70;52.30
21353;DHT22;10834;52.268;6.770;2024-03-08T11:37:52;12.60;52.20
21353;DHT22;10834;52.268;6.770;2024-03-08T11:40:39;12.50;52.10
21353;DHT22;10834;52.268;6.770;2024-03-08T11:43:24;12.40;53.20
21353;DHT22;10834;52.268;6.770;2024-03-08T11:46:09;12.50;54.40
21353;DHT22;10834;52.268;6.770;2024-03-08T11:48:54;12.30;52.20
21353;DHT22;10834;52.268;6.770;2024-03-08T11:51:41;12.20;53.40
21353;DHT22;10834;52.268;6.770;2024-03-08T11:54:25;12.00;54.40
21353;DHT22;10834;52.268;6.770;2024-03-08T11:57:10;11.90;56.40
21353;DHT22;10834;52.268;6.770;2024-03-08T11:59:55;11.90;53.70
21353;DHT22;10834;52.268;6.770;2024-03-08T12:02:42;11.80;54.60
21353;DHT22;10834;52.268;6.770;2024-03-08T12:05:34;11.80;55.30
21353;DHT22;10834;52.268;6.770;2024-03-08T12:08:19;11.90;55.30
21353;DHT22;10834;52.268;6.770;2024-03-08T12:11:07;11.90;55.00
21353;DHT22;10834;52.268;6.770;2024-03-08T12:13:54;11.90;54.90
21353;DHT22;10834;52.268;6.770;2024-03-08T12:16:38;11.80;54.40
21353;DHT22;10834;52.268;6.770;2024-03-08T12:19:22;11.70;55.50
21353;DHT22;10834;52.268;6.770;2024-03-08T12:22:09;11.70;55.40
21353;DHT22;10834;52.268;6.770;2024-03-08T12:25:12;11.70;56.80
21353;DHT22;10834;52.268;6.770;2024-03-08T12:28:06;12.00;55.90
21353;DHT22;10834;52.268;6.770;2024-03-08T12:30:51;12.00;54.80
21353;DHT22;10834;52.268;6.770;2024-03-08T12:33:51;12.10;56.20
21353;DHT22;10834;52.268;6.770;2024-03-08T12:36:36;11.90;53.90
21353;DHT22;10834;52.268;6.770;2024-03-08T12:39:21;11.80;54.90
21353;DHT22;10834;52.268;6.770;2024-03-08T12:42:06;11.90;54.60
21353;DHT22;10834;52.268;6.770;2024-03-08T12:44:50;11.90;54.30
21353;DHT22;10834;52.268;6.770;2024-03-08T12:47:35;11.80;54.70
21353;DHT22;10834;52.268;6.770;2024-03-08T12:50:19;11.60;53.90
21353;DHT22;10834;52.268;6.770;2024-03-08T12:53:04;11.50;54.00
21353;DHT22;10834;52.268;6.770;2024-03-08T12:55:48;11.40;53.50
21353;DHT22;10834;52.268;6.770;2024-03-08T12:58:34;11.20;55.50
21353;DHT22;10834;52.268;6.770;2024-03-08T13:01:18;11.30;56.00
21353;DHT22;10834;52.268;6.770;2024-03-08T13:04:03;11.40;55.70
21353;DHT22;10834;52.268;6.770;2024-03-08T13:06:48;11.40;55.30
21353;DHT22;10834;52.268;6.770;2024-03-08T13:09:33;11.40;55.90
21353;DHT22;10834;52.268;6.770;2024-03-08T13:12:21;11.40;55.90
21353;DHT22;10834;52.268;6.770;2024-03-08T13:15:07;11.40;56.20
21353;DHT22;10834;52.268;6.770;2024-03-08T13:17:52;11.30;54.50
21353;DHT22;10834;52.268;6.770;2024-03-08T13:20:36;11.20;56.10
21353;DHT22;10834;52.268;6.770;2024-03-08T13:23:23;11.20;55.90
21353;DHT22;10834;52.268;6.770;2024-03-08T13:26:08;11.20;56.20
21353;DHT22;10834;52.268;6.770;2024-03-08T13:28:53;11.20;55.60
21353;DHT22;10834;52.268;6.770;2024-03-08T13:31:37;11.20;56.70
21353;DHT22;10834;52.268;6.770;2024-03-08T13:34:22;11.20;56.80
21353;DHT22;10834;52.268;6.770;2024-03-08T13:37:12;11.20;55.80
21353;DHT22;10834;52.268;6.770;2024-03-08T13:39:56;11.20;57.80
21353;DHT22;10834;52.268;6.770;2024-03-08T13:42:40;11.20;56.60
21353;DHT22;10834;52.268;6.770;2024-03-08T13:45:25;11.20;56.40
21353;DHT22;10834;52.268;6.770;2024-03-08T13:48:09;11.10;56.80
21353;DHT22;10834;52.268;6.770;2024-03-08T13:50:57;11.10;57.00
21353;DHT22;10834;52.268;6.770;2024-03-08T13:53:41;11.20;57.60
21353;DHT22;10834;52.268;6.770;2024-03-08T13:56:26;11.10;58.60
21353;DHT22;10834;52.268;6.770;2024-03-08T13:59:11;11.10;57.70
21353;DHT22;10834;52.268;6.770;2024-03-08T14:01:56;11.00;58.70
21353;DHT22;10834;52.268;6.770;2024-03-08T14:04:41;11.00;59.50
21353;DHT22;10834;52.268;6.770;2024-03-08T14:07:25;11.00;59.00
21353;DHT22;10834;52.268;6.770;2024-03-08T14:10:09;11.00;59.40
21353;DHT22;10834;52.268;6.770;2024-03-08T14:12:54;10.90;58.90
21353;DHT22;10834;52.268;6.770;2024-03-08T14:15:39;10.90;59.90
21353;DHT22;10834;52.268;6.770;2024-03-08T14:18:26;10.80;59.70
21353;DHT22;10834;52.268;6.770;2024-03-08T14:21:13;10.70;61.90
21353;DHT22;10834;52.268;6.770;2024-03-08T14:23:57;10.70;61.60
21353;DHT22;10834;52.268;6.770;2024-03-08T14:26:42;10.70;60.80
21353;DHT22;10834;52.268;6.770;2024-03-08T14:29:26;10.70;62.00
21353;DHT22;10834;52.268;6.770;2024-03-08T14:32:13;10.60;62.00
21353;DHT22;10834;52.268;6.770;2024-03-08T14:34:57;10.50;61.70
21353;DHT22;10834;52.268;6.770;2024-03-08T14:37:42;10.40;62.80
21353;DHT22;10834;52.268;6.770;2024-03-08T14:40:28;10.40;62.60
21353;DHT22;10834;52.268;6.770;2024-03-08T14:43:14;10.40;63.80
21353;DHT22;10834;52.268;6.770;2024-03-08T14:45:59;10.40;65.00
21353;DHT22;10834;52.268;6.770;2024-03-08T14:48:44;10.40;66.80
21353;DHT22;10834;52.268;6.770;2024-03-08T14:51:28;10.30;66.90
21353;DHT22;10834;52.268;6.770;2024-03-08T14:54:12;10.30;67.00
21353;DHT22;10834;52.268;6.770;2024-03-08T14:56:56;10.20;66.80
21353;DHT22;10834;52.268;6.770;2024-03-08T14:59:40;10.10;67.90
21353;DHT22;10834;52.268;6.770;2024-03-08T15:02:27;10.10;67.70
21353;DHT22;10834;52.268;6.770;2024-03-08T15:05:11;10.00;69.80
21353;DHT22;10834;52.268;6.770;2024-03-08T15:07:55;10.00;68.30
21353;DHT22;10834;52.268;6.770;2024-03-08T15:10:40;9.90;69.20
21353;DHT22;10834;52.268;6.770;2024-03-08T15:13:24;9.90;69.30
21353;DHT22;10834;52.268;6.770;2024-03-08T15:16:17;9.90;67.40
21353;DHT22;10834;52.268;6.770;2024-03-08T15:19:02;9.80;68.20
21353;DHT22;10834;52.268;6.770;2024-03-08T15:21:46;9.80;67.20
21353;DHT22;10834;52.268;6.770;2024-03-08T15:24:32;9.80;67.60
21353;DHT22;10834;52.268;6.770;2024-03-08T15:27:17;9.80;68.90
21353;DHT22;10834;52.268;6.770;2024-03-08T15:30:01;9.70;69.10
21353;DHT22;10834;52.268;6.770;2024-03-08T15:32:47;9.70;70.90
21353;DHT22;10834;52.268;6.770;2024-03-08T15:35:31;9.70;70.70
21353;DHT22;10834;52.268;6.770;2024-03-08T15:38:16;9.70;72.40
21353;DHT22;10834;52.268;6.770;2024-03-08T15:41:04;9.60;70.30
21353;DHT22;10834;52.268;6.770;2024-03-08T15:43:53;9.60;70.60
21353;DHT22;10834;52.268;6.770;2024-03-08T15:46:38;9.60;73.30
21353;DHT22;10834;52.268;6.770;2024-03-08T15:49:23;9.50;74.30
21353;DHT22;10834;52.268;6.770;2024-03-08T15:52:10;9.50;75.30
21353;DHT22;10834;52.268;6.770;2024-03-08T15:54:55;9.50;73.90
21353;DHT22;10834;52.268;6.770;2024-03-08T15:57:40;9.50;73.80
21353;DHT22;10834;52.268;6.770;2024-03-08T16:00:24;9.40;75.00
21353;DHT22;10834;52.268;6.770;2024-03-08T16:03:19;9.40;76.10
21353;DHT22;10834;52.268;6.770;2024-03-08T16:06:04;9.30;78.80
21353;DHT22;10834;52.268;6.770;2024-03-08T16:08:50;9.30;79.80
21353;DHT22;10834;52.268;6.770;2024-03-08T16:11:35;9.20;79.40
21353;DHT22;10834;52.268;6.770;2024-03-08T16:14:22;9.20;78.40
21353;DHT22;10834;52.268;6.770;2024-03-08T16:17:06;9.20;79.80
21353;DHT22;10834;52.268;6.770;2024-03-08T16:19:51;9.20;80.30
21353;DHT22;10834;52.268;6.770;2024-03-08T16:22:35;9.20;81.10
21353;DHT22;10834;52.268;6.770;2024-03-08T16:25:19;9.10;80.10
21353;DHT22;10834;52.268;6.770;2024-03-08T16:28:04;9.10;79.20
21353;DHT22;10834;52.268;6.770;2024-03-08T16:30:52;9.10;80.30
21353;DHT22;10834;52.268;6.770;2024-03-08T16:33:39;9.00;81.20
21353;DHT22;10834;52.268;6.770;2024-03-08T16:36:23;9.00;81.60
21353;DHT22;10834;52.268;6.770;2024-03-08T16:39:07;8.90;83.20
21353;DHT22;10834;52.268;6.770;2024-03-08T16:41:53;8.80;83.80
21353;DHT22;10834;52.268;6.770;2024-03-08T16:44:37;8.80;86.10
21353;DHT22;10834;52.268;6.770;2024-03-08T16:47:22;8.70;89.90
21353;DHT22;10834;52.268;6.770;2024-03-08T16:50:06;8.60;89.20
21353;DHT22;10834;52.268;6.770;2024-03-08T16:52:51;8.60;88.40
21353;DHT22;10834;52.268;6.770;2024-03-08T16:55:36;8.60;88.00
21353;DHT22;10834;52.268;6.770;2024-03-08T16:58:21;8.60;88.10
21353;DHT22;10834;52.268;6.770;2024-03-08T17:01:05;8.60;88.20
21353;DHT22;10834;52.268;6.770;2024-03-08T17:03:50;8.60;89.20
21353;DHT22;10834;52.268;6.770;2024-03-08T17:06:36;8.50;90.10
21353;DHT22;10834;52.268;6.770;2024-03-08T17:09:21;8.40;90.60
21353;DHT22;10834;52.268;6.770;2024-03-08T17:12:06;8.40;90.80
21353;DHT22;10834;52.268;6.770;2024-03-08T17:14:54;8.30;91.00
21353;DHT22;10834;52.268;6.770;2024-03-08T17:17:39;8.30;91.50
21353;DHT22;10834;52.268;6.770;2024-03-08T17:20:26;8.20;91.70
21353;DHT22;10834;52.268;6.770;2024-03-08T17:23:11;8.20;92.50
21353;DHT22;10834;52.268;6.770;2024-03-08T17:25:59;8.10;93.90
21353;DHT22;10834;52.268;6.770;2024-03-08T17:28:44;8.00;94.00
21353;DHT22;10834;52.268;6.770;2024-03-08T17:31:28;8.00;94.50
21353;DHT22;10834;52.268;6.770;2024-03-08T17:34:16;7.90;96.90
21353;DHT22;10834;52.268;6.770;2024-03-08T17:37:03;7.80;97.00
21353;DHT22;10834;52.268;6.770;2024-03-08T17:39:48;7.80;97.30
21353;DHT22;10834;52.268;6.770;2024-03-08T17:42:32;7.70;98.80
21353;DHT22;10834;52.268;6.770;2024-03-08T17:45:16;7.60;99.50
21353;DHT22;10834;52.268;6.770;2024-03-08T17:48:02;7.60;99.90